CZST

Stewart Airport

Stewart, , Canada
METAR CZST 210100Z VRB02KT 15SM OVC080 00/00 A2953 RMK AS8 LAST STFD OBS/NEXT 211500Z/ SLP002
Observed Flight Rules
Jan-21 @ 01:00 UTC (4 hours ago) Visual Flight Rules
Wind Visibility Clouds
Variable at 2 knots 15 miles
  • Overcast at 8,000' AGL
Temperatures Readings
Current 0°C / 32°F
Dewpoint 0°C / 32°F
Humidity 100%
Altimeter 29.53" Hg
Pressure 1000.2 hPa
Elevation 7
METAR CZST 210100Z VRB02KT 15SM OVC080 00/00 A2953 RMK AS8 LAST STFD OBS/NEXT 211500Z/ SLP002
Observed Flight Rules
Jan-21 @ 01:00 UTC
(4 hours ago)
VFR
Wind Visibility
Variable at 2 knots 15 miles
Clouds
  • Overcast at 8,000' AGL
Temperature Dewpoint
0°C / 32°F 0°C / 32°F
Humidity Altimeter Pressure
100% 29.53" Hg 1000.2 hPa